createdAt,value
2023-05-16T00:01:35.609Z,1.23
2023-05-16T00:04:05.212Z,1.10
2023-05-16T00:06:33.214Z,1.20
2023-05-16T00:09:01.191Z,1.50
2023-05-16T00:11:29.247Z,1.40
2023-05-16T00:13:57.359Z,0.93
2023-05-16T00:16:25.907Z,1.13
2023-05-16T00:18:53.792Z,1.30
2023-05-16T00:21:23.806Z,1.00
2023-05-16T00:23:52.632Z,1.63
2023-05-16T00:26:20.772Z,1.20
2023-05-16T00:28:48.657Z,1.57
2023-05-16T00:31:16.570Z,1.10
2023-05-16T00:33:44.437Z,1.53
2023-05-16T00:36:12.514Z,1.33
2023-05-16T00:38:41.700Z,1.00
2023-05-16T00:41:09.433Z,1.70
2023-05-16T00:43:37.389Z,1.70
2023-05-16T00:46:05.232Z,2.20
2023-05-16T00:48:33.737Z,1.20
2023-05-16T00:51:02.190Z,1.23
2023-05-16T00:53:30.576Z,1.90
2023-05-16T00:56:00.435Z,1.20
2023-05-16T00:58:29.185Z,1.10
2023-05-16T01:00:57.137Z,1.07
2023-05-16T01:03:25.411Z,1.47
2023-05-16T01:05:53.828Z,1.20
2023-05-16T01:08:21.694Z,1.00
2023-05-16T01:10:59.226Z,0.87
2023-05-16T01:13:34.776Z,1.50
2023-05-16T01:16:11.782Z,1.30
2023-05-16T01:18:44.942Z,1.17
2023-05-16T01:21:19.933Z,1.33
2023-05-16T01:23:54.065Z,1.27
2023-05-16T01:26:26.634Z,1.33
2023-05-16T01:28:55.803Z,1.40
2023-05-16T01:31:24.788Z,1.80
2023-05-16T01:33:53.010Z,0.80
2023-05-16T01:36:26.587Z,1.37
2023-05-16T01:39:04.058Z,1.00
2023-05-16T01:41:42.263Z,1.10
2023-05-16T01:44:19.509Z,1.20
2023-05-16T01:46:49.450Z,1.30
2023-05-16T01:49:21.364Z,1.10
2023-05-16T01:51:55.361Z,0.90
2023-05-16T01:54:26.798Z,1.37
2023-05-16T01:56:57.670Z,1.10
2023-05-16T01:59:26.252Z,1.33
2023-05-16T02:01:55.247Z,1.20
2023-05-16T02:04:24.221Z,1.20
2023-05-16T02:06:52.355Z,1.23
2023-05-16T02:09:20.191Z,1.00
2023-05-16T02:11:48.171Z,0.87
2023-05-16T02:14:17.348Z,1.00
2023-05-16T02:16:45.412Z,1.00
2023-05-16T02:19:13.427Z,1.00
2023-05-16T02:21:41.401Z,1.17
2023-05-16T02:24:09.268Z,1.20
2023-05-16T02:26:41.549Z,1.30
2023-05-16T02:29:09.547Z,1.43
2023-05-16T02:31:38.735Z,1.10
2023-05-16T02:34:07.229Z,1.30
2023-05-16T02:36:36.220Z,0.80
2023-05-16T02:39:04.376Z,1.00
2023-05-16T02:41:33.166Z,0.77
2023-05-16T02:44:00.954Z,0.77
2023-05-16T02:46:30.827Z,1.07
2023-05-16T02:49:00.605Z,1.43
2023-05-16T02:51:29.688Z,0.93
2023-05-16T02:53:59.668Z,1.10
2023-05-16T02:56:27.648Z,1.63
2023-05-16T02:58:56.249Z,1.13
2023-05-16T03:01:24.189Z,1.33
2023-05-16T03:03:52.291Z,1.27
2023-05-16T03:06:21.545Z,1.30
2023-05-16T03:08:49.440Z,1.17
2023-05-16T03:11:20.499Z,1.00
2023-05-16T03:13:48.463Z,1.23
2023-05-16T03:16:16.748Z,1.03
2023-05-16T03:18:45.303Z,0.93
2023-05-16T03:21:13.471Z,2.10
2023-05-16T03:23:42.692Z,1.20
2023-05-16T03:26:10.585Z,1.10
2023-05-16T03:28:38.489Z,1.50
2023-05-16T03:31:06.596Z,1.30
2023-05-16T03:33:34.422Z,1.27
2023-05-16T03:36:02.158Z,1.07
2023-05-16T03:38:30.232Z,1.53
2023-05-16T03:40:59.347Z,0.90
2023-05-16T03:43:27.073Z,1.03
2023-05-16T03:45:54.831Z,1.30
2023-05-16T03:48:22.788Z,1.17
2023-05-16T03:50:51.465Z,1.30
2023-05-16T03:53:19.250Z,1.10
2023-05-16T03:55:48.614Z,1.30
2023-05-16T03:58:18.034Z,1.03
2023-05-16T04:00:46.873Z,1.10
2023-05-16T04:03:14.868Z,1.10
2023-05-16T04:05:42.773Z,1.40
2023-05-16T04:08:10.601Z,0.87
2023-05-16T04:10:38.448Z,1.00
2023-05-16T04:13:06.252Z,1.37
2023-05-16T04:15:35.328Z,1.00
2023-05-16T04:18:03.381Z,1.17
2023-05-16T04:20:32.874Z,1.00
2023-05-16T04:23:00.850Z,0.93
2023-05-16T04:25:28.753Z,1.10
2023-05-16T04:27:57.292Z,0.93
2023-05-16T04:30:25.151Z,1.20
2023-05-16T04:32:54.426Z,1.00
2023-05-16T04:35:23.059Z,1.00
2023-05-16T04:37:51.364Z,1.03
2023-05-16T04:40:19.306Z,1.30
2023-05-16T04:42:47.393Z,1.03
2023-05-16T04:45:15.397Z,0.73
2023-05-16T04:47:43.258Z,0.90
2023-05-16T04:50:13.034Z,1.10
2023-05-16T04:52:40.857Z,0.73
2023-05-16T04:55:09.670Z,1.00
2023-05-16T04:57:37.532Z,0.60
2023-05-16T05:00:08.994Z,0.90
2023-05-16T05:02:36.964Z,0.87
2023-05-16T05:05:05.171Z,0.90
2023-05-16T05:07:34.559Z,0.90
2023-05-16T05:10:11.829Z,0.90
2023-05-16T05:12:39.615Z,0.70
2023-05-16T05:15:08.692Z,1.20
2023-05-16T05:17:37.762Z,0.60
2023-05-16T05:20:08.711Z,0.63
2023-05-16T05:22:38.060Z,0.60
2023-05-16T05:25:07.248Z,1.00
2023-05-16T05:27:35.114Z,0.97
2023-05-16T05:30:03.549Z,1.00
2023-05-16T05:32:31.524Z,0.83
2023-05-16T05:34:59.512Z,0.83
2023-05-16T05:37:27.835Z,0.70
2023-05-16T05:39:56.924Z,0.73
2023-05-16T05:42:24.699Z,1.17
2023-05-16T05:44:52.493Z,1.00
2023-05-16T05:47:20.341Z,0.77
2023-05-16T05:49:48.813Z,0.77
2023-05-16T05:52:16.532Z,0.63
2023-05-16T05:54:44.377Z,1.10
2023-05-16T05:57:13.598Z,1.13
2023-05-16T05:59:41.370Z,0.93
2023-05-16T06:02:09.550Z,0.70
2023-05-16T06:04:37.794Z,0.73
2023-05-16T06:07:06.058Z,0.57
2023-05-16T06:09:33.830Z,0.80
2023-05-16T06:12:02.119Z,0.80
2023-05-16T06:14:31.344Z,1.07
2023-05-16T06:16:59.212Z,0.83
2023-05-16T06:19:27.381Z,0.70
2023-05-16T06:21:55.170Z,0.90
2023-05-16T06:24:23.518Z,0.87
2023-05-16T06:26:52.513Z,0.90
2023-05-16T06:29:20.350Z,0.73
2023-05-16T06:31:49.778Z,0.60
2023-05-16T06:34:17.692Z,0.57
2023-05-16T06:36:45.557Z,0.93
2023-05-16T06:39:13.362Z,0.67
2023-05-16T06:41:41.271Z,0.90
2023-05-16T06:44:09.035Z,0.70
2023-05-16T06:46:37.267Z,0.90
2023-05-16T06:49:07.478Z,0.80
2023-05-16T06:51:35.459Z,0.60
2023-05-16T06:54:04.201Z,0.60
2023-05-16T06:56:32.611Z,0.80
2023-05-16T06:59:01.823Z,0.80
2023-05-16T07:01:29.690Z,0.87
2023-05-16T07:03:57.733Z,0.87
2023-05-16T07:06:27.237Z,0.97
2023-05-16T07:08:55.102Z,0.60
2023-05-16T07:11:23.025Z,0.60
2023-05-16T07:13:50.859Z,0.70
2023-05-16T07:16:18.723Z,0.87
2023-05-16T07:18:46.624Z,0.70
2023-05-16T07:21:14.508Z,0.80
2023-05-16T07:23:43.642Z,0.80
2023-05-16T07:26:11.646Z,0.63
2023-05-16T07:28:39.658Z,0.70
2023-05-16T07:31:08.386Z,0.93
2023-05-16T07:33:36.332Z,0.70
2023-05-16T07:36:16.176Z,0.70
2023-05-16T07:38:46.771Z,0.70
2023-05-16T07:41:14.558Z,0.83
2023-05-16T07:43:42.489Z,0.70
2023-05-16T07:46:11.109Z,0.87
2023-05-16T07:48:38.978Z,0.80
2023-05-16T07:51:06.888Z,0.70
2023-05-16T07:53:34.687Z,0.80
2023-05-16T07:56:04.192Z,0.60
2023-05-16T07:58:32.109Z,0.80
2023-05-16T08:01:00.456Z,0.70
2023-05-16T08:03:29.565Z,0.70
2023-05-16T08:05:57.910Z,0.60
2023-05-16T08:08:25.950Z,1.03
2023-05-16T08:10:53.925Z,0.80
2023-05-16T08:13:23.449Z,0.70
2023-05-16T08:15:52.751Z,0.57
2023-05-16T08:18:22.422Z,0.97
2023-05-16T08:20:51.292Z,1.07
2023-05-16T08:23:20.085Z,0.80
2023-05-16T08:25:48.409Z,1.13
2023-05-16T08:28:16.443Z,0.50
2023-05-16T08:30:47.823Z,0.60
2023-05-16T08:33:16.130Z,1.00
2023-05-16T08:35:44.128Z,0.70
2023-05-16T08:38:12.160Z,0.63
2023-05-16T08:40:45.388Z,0.50
2023-05-16T08:43:13.790Z,0.80
2023-05-16T08:45:42.646Z,0.60
2023-05-16T08:48:12.769Z,0.73
2023-05-16T08:50:42.838Z,0.57
2023-05-16T08:53:13.073Z,0.90
2023-05-16T08:55:42.601Z,0.70
2023-05-16T08:58:10.570Z,0.60
2023-05-16T09:00:38.444Z,0.60
2023-05-16T09:03:08.374Z,0.50
2023-05-16T09:05:37.761Z,0.77
2023-05-16T09:08:06.593Z,0.40
2023-05-16T09:10:34.360Z,0.90
2023-05-16T09:13:02.243Z,0.90
2023-05-16T09:15:33.411Z,0.80
2023-05-16T09:18:03.012Z,1.20
2023-05-16T09:20:31.325Z,0.73
2023-05-16T09:23:01.218Z,0.57
2023-05-16T09:25:31.795Z,0.83
2023-05-16T09:28:02.445Z,0.80
2023-05-16T09:30:34.409Z,0.70
2023-05-16T09:33:03.230Z,0.60
2023-05-16T09:38:05.022Z,0.70
2023-05-16T09:40:33.002Z,0.60
2023-05-16T09:43:05.933Z,0.87
2023-05-16T09:45:34.887Z,0.50
2023-05-16T09:48:08.237Z,0.70
2023-05-16T09:50:38.005Z,0.70
2023-05-16T09:53:07.725Z,0.97
2023-05-16T09:55:36.297Z,0.60
2023-05-16T09:58:04.244Z,0.90
2023-05-16T10:00:35.690Z,0.73
2023-05-16T10:03:05.867Z,0.70
2023-05-16T10:05:34.887Z,0.67
2023-05-16T10:08:04.575Z,0.80
2023-05-16T10:10:37.475Z,0.70
2023-05-16T10:13:08.085Z,0.57
2023-05-16T10:15:39.738Z,0.73
2023-05-16T10:18:12.127Z,0.70
2023-05-16T10:20:42.912Z,0.77
2023-05-16T10:23:13.932Z,0.90
2023-05-16T10:25:47.504Z,0.47
2023-05-16T10:28:16.390Z,0.70
2023-05-16T10:30:45.868Z,0.97
2023-05-16T10:33:15.121Z,0.60
2023-05-16T10:35:43.709Z,0.43
2023-05-16T10:38:13.962Z,0.60
2023-05-16T10:40:42.813Z,0.57
2023-05-16T10:43:12.039Z,0.67
2023-05-16T10:45:43.055Z,0.90
2023-05-16T10:48:15.421Z,0.70
2023-05-16T10:50:44.773Z,0.73
2023-05-16T10:53:23.655Z,0.80
2023-05-16T10:56:07.407Z,0.57
2023-05-16T10:58:48.734Z,0.70
2023-05-16T11:01:22.298Z,0.90
2023-05-16T11:04:07.980Z,0.70
2023-05-16T11:06:37.192Z,0.60
2023-05-16T11:09:22.264Z,0.50
2023-05-16T11:11:57.336Z,0.77
2023-05-16T11:14:28.894Z,0.60
2023-05-16T11:17:03.402Z,0.50
2023-05-16T11:19:34.389Z,0.60
2023-05-16T11:22:23.488Z,0.80
2023-05-16T11:24:54.888Z,0.70
2023-05-16T11:27:25.009Z,0.60
2023-05-16T11:29:55.345Z,0.60
2023-05-16T11:32:24.457Z,1.00
2023-05-16T11:34:53.413Z,0.60
2023-05-16T11:37:22.933Z,0.47
2023-05-16T11:39:51.309Z,0.80
2023-05-16T11:42:19.254Z,0.53
2023-05-16T11:44:47.425Z,0.60
2023-05-16T11:47:16.764Z,0.60
2023-05-16T11:49:44.650Z,0.80
2023-05-16T11:52:12.554Z,0.60
2023-05-16T11:54:42.433Z,0.60
2023-05-16T11:57:10.568Z,0.60
2023-05-16T11:59:38.461Z,0.70
2023-05-16T12:02:07.037Z,0.47
2023-05-16T12:04:38.345Z,0.90
2023-05-16T12:07:06.451Z,0.60
2023-05-16T12:09:34.262Z,0.60
2023-05-16T12:12:06.913Z,0.50
2023-05-16T12:14:34.973Z,0.87
2023-05-16T12:17:04.584Z,0.50
2023-05-16T12:19:32.936Z,0.73
2023-05-16T12:22:02.779Z,0.63
2023-05-16T12:24:33.700Z,0.70
2023-05-16T12:27:01.558Z,0.57
2023-05-16T12:29:29.568Z,0.40
2023-05-16T12:31:57.516Z,0.60
2023-05-16T12:34:25.407Z,0.80
2023-05-16T12:36:54.742Z,0.63
2023-05-16T12:39:24.116Z,0.60
2023-05-16T12:41:52.071Z,0.60
2023-05-16T12:44:23.139Z,0.40
2023-05-16T12:46:52.933Z,0.63
2023-05-16T12:49:22.715Z,0.80
2023-05-16T12:51:52.345Z,0.77
2023-05-16T12:54:22.921Z,0.50
2023-05-16T12:56:52.426Z,0.53
2023-05-16T12:59:20.619Z,0.50
2023-05-16T13:01:48.584Z,0.70
2023-05-16T13:04:19.410Z,0.50
2023-05-16T13:06:57.714Z,0.47
2023-05-16T13:09:30.384Z,0.60
2023-05-16T13:12:01.874Z,0.70
2023-05-16T13:14:29.675Z,0.60
2023-05-16T13:16:57.596Z,0.67
2023-05-16T13:19:25.749Z,0.60
2023-05-16T13:21:53.772Z,0.60
2023-05-16T13:24:21.715Z,0.53
2023-05-16T13:26:49.575Z,0.50
2023-05-16T13:29:18.781Z,0.50
2023-05-16T13:31:46.742Z,0.40
2023-05-16T13:34:14.857Z,0.60
2023-05-16T13:36:53.972Z,0.50
2023-05-16T13:39:23.174Z,0.50
2023-05-16T13:41:51.554Z,0.80
2023-05-16T13:44:22.236Z,0.40
2023-05-16T13:46:50.189Z,0.47
2023-05-16T13:49:17.940Z,0.53
2023-05-16T13:51:45.833Z,0.77
2023-05-16T13:54:13.656Z,0.60
2023-05-16T13:56:41.516Z,0.50
2023-05-16T13:59:11.533Z,0.70
2023-05-16T14:01:43.007Z,0.83
2023-05-16T14:04:10.840Z,0.53
2023-05-16T14:06:38.770Z,0.70
2023-05-16T14:09:06.617Z,0.60
2023-05-16T14:11:34.520Z,0.60
2023-05-16T14:14:02.357Z,0.60
2023-05-16T14:16:31.177Z,0.43
2023-05-16T14:19:00.514Z,0.70
2023-05-16T14:21:28.424Z,0.60
2023-05-16T14:23:56.240Z,0.70
2023-05-16T14:26:25.362Z,0.40
2023-05-16T14:28:53.462Z,0.50
2023-05-16T14:31:21.346Z,0.30
2023-05-16T14:33:49.683Z,0.70
2023-05-16T14:36:19.285Z,0.40
2023-05-16T14:38:49.059Z,0.50
2023-05-16T14:41:17.010Z,0.60
2023-05-16T14:43:45.482Z,0.57
2023-05-16T14:46:14.004Z,0.60
2023-05-16T14:48:41.962Z,0.50
2023-05-16T14:51:09.822Z,0.53
2023-05-16T14:53:39.018Z,0.67
2023-05-16T14:56:07.106Z,0.60
2023-05-16T14:58:34.962Z,0.87
2023-05-16T15:01:02.777Z,0.70
2023-05-16T15:03:35.454Z,0.90
2023-05-16T15:06:11.228Z,1.10
2023-05-16T15:08:40.623Z,0.60
2023-05-16T15:11:08.450Z,0.93
2023-05-16T15:13:36.203Z,1.00
2023-05-16T15:16:05.357Z,1.00
2023-05-16T15:18:33.277Z,1.07
2023-05-16T15:21:01.153Z,1.30
2023-05-16T15:23:29.779Z,1.80
2023-05-16T15:25:58.990Z,1.73
2023-05-16T15:28:26.886Z,1.57
2023-05-16T15:30:54.739Z,1.53
2023-05-16T15:33:22.583Z,1.50
2023-05-16T15:35:50.806Z,2.03
2023-05-16T15:38:18.596Z,2.00
2023-05-16T15:40:47.061Z,1.83
2023-05-16T15:43:18.257Z,2.40
2023-05-16T15:45:46.115Z,2.33
2023-05-16T15:48:14.108Z,2.70
2023-05-16T15:50:41.925Z,2.23
2023-05-16T15:53:09.942Z,1.80
2023-05-16T15:55:38.132Z,1.50
2023-05-16T15:58:06.249Z,1.63
2023-05-16T16:00:35.460Z,1.33
2023-05-16T16:03:03.445Z,1.40
2023-05-16T16:05:31.285Z,1.43
2023-05-16T16:07:59.023Z,1.67
2023-05-16T16:10:27.118Z,1.33
2023-05-16T16:13:01.542Z,1.23
2023-05-16T16:15:33.084Z,1.30
2023-05-16T16:18:02.922Z,1.80
2023-05-16T16:20:30.811Z,1.37
2023-05-16T16:22:59.303Z,1.40
2023-05-16T16:25:27.347Z,1.17
2023-05-16T16:27:55.852Z,1.50
2023-05-16T16:30:23.562Z,1.37
2023-05-16T16:32:52.060Z,1.70
2023-05-16T16:35:22.471Z,1.13
2023-05-16T16:38:04.943Z,1.10
2023-05-16T16:40:34.407Z,1.37
2023-05-16T16:43:02.358Z,1.30
2023-05-16T16:45:30.558Z,1.33
2023-05-16T16:47:58.663Z,1.10
2023-05-16T16:50:27.922Z,1.40
2023-05-16T16:52:55.951Z,1.13
2023-05-16T16:55:23.812Z,1.03
2023-05-16T16:57:51.599Z,1.23
2023-05-16T17:00:20.004Z,1.20
2023-05-16T17:02:48.226Z,1.13
2023-05-16T17:05:16.183Z,1.00
2023-05-16T17:07:45.589Z,1.30
2023-05-16T17:10:13.461Z,0.97
2023-05-16T17:12:48.938Z,1.33
2023-05-16T17:15:17.368Z,1.10
2023-05-16T17:17:45.456Z,1.07
2023-05-16T17:20:14.227Z,1.17
2023-05-16T17:22:42.121Z,0.90
2023-05-16T17:25:11.828Z,1.23
2023-05-16T17:27:40.827Z,1.07
2023-05-16T17:30:10.646Z,1.10
2023-05-16T17:32:39.862Z,1.10
2023-05-16T17:35:08.193Z,0.90
2023-05-16T17:37:36.328Z,1.10
2023-05-16T17:40:05.855Z,1.10
2023-05-16T17:42:35.200Z,1.07
2023-05-16T17:45:04.757Z,1.10
2023-05-16T17:47:33.151Z,1.20
2023-05-16T17:50:01.332Z,1.30
2023-05-16T17:52:29.452Z,1.20
2023-05-16T17:54:57.316Z,1.07
2023-05-16T17:57:25.185Z,1.17
2023-05-16T17:59:54.584Z,1.10
2023-05-16T18:02:22.486Z,1.03
2023-05-16T18:04:50.365Z,1.10
2023-05-16T18:07:18.358Z,1.27
2023-05-16T18:09:46.149Z,1.20
2023-05-16T18:12:13.971Z,1.20
2023-05-16T18:14:45.257Z,1.20
2023-05-16T18:17:14.760Z,1.10
2023-05-16T18:19:42.936Z,1.00
2023-05-16T18:22:12.448Z,1.20
2023-05-16T18:24:40.836Z,1.13
2023-05-16T18:27:08.703Z,1.27
2023-05-16T18:29:36.500Z,1.20
2023-05-16T18:32:04.494Z,1.30
2023-05-16T18:34:34.109Z,1.20
2023-05-16T18:37:02.000Z,1.20
2023-05-16T18:39:29.983Z,1.30
2023-05-16T18:41:57.932Z,1.33
2023-05-16T18:44:25.762Z,1.40
2023-05-16T18:46:53.656Z,0.97
2023-05-16T18:49:21.712Z,1.33
2023-05-16T18:51:51.065Z,1.23
2023-05-16T18:54:19.087Z,1.40
2023-05-16T18:56:47.153Z,1.20
2023-05-16T18:59:15.091Z,1.47
2023-05-16T19:01:44.645Z,1.40
2023-05-16T19:04:12.612Z,1.07
2023-05-16T19:06:40.485Z,1.30
2023-05-16T19:09:09.720Z,1.20
2023-05-16T19:11:37.813Z,1.30
2023-05-16T19:14:05.604Z,1.10
2023-05-16T19:16:33.977Z,1.13
2023-05-16T19:19:01.996Z,1.27
2023-05-16T19:21:29.956Z,1.27
2023-05-16T19:23:58.084Z,1.50
2023-05-16T19:26:27.832Z,1.47
2023-05-16T19:28:55.843Z,1.37
2023-05-16T19:31:23.716Z,1.60
2023-05-16T19:33:51.758Z,1.17
2023-05-16T19:36:19.580Z,1.50
2023-05-16T19:38:47.511Z,1.33
2023-05-16T19:41:15.410Z,1.57
2023-05-16T19:43:44.642Z,1.70
2023-05-16T19:46:12.429Z,1.27
2023-05-16T19:48:40.418Z,1.90
2023-05-16T19:51:09.129Z,1.53
2023-05-16T19:53:36.995Z,1.70
2023-05-16T19:56:05.306Z,1.83
2023-05-16T19:58:33.176Z,1.33
2023-05-16T20:01:02.597Z,1.70
2023-05-16T20:03:30.575Z,1.30
2023-05-16T20:05:58.582Z,1.43
2023-05-16T20:08:26.639Z,1.30
2023-05-16T20:10:55.271Z,1.30
2023-05-16T20:13:23.335Z,1.60
2023-05-16T20:15:51.434Z,1.20
2023-05-16T20:18:20.663Z,1.60
2023-05-16T20:20:48.541Z,1.17
2023-05-16T20:23:16.564Z,1.17
2023-05-16T20:25:44.418Z,1.57
2023-05-16T20:28:12.382Z,1.30
2023-05-16T20:30:40.189Z,1.37
2023-05-16T20:33:08.119Z,1.67
2023-05-16T20:35:37.357Z,1.50
2023-05-16T20:38:05.370Z,1.30
2023-05-16T20:40:33.183Z,1.60
2023-05-16T20:43:03.402Z,1.80
2023-05-16T20:45:31.325Z,1.90
2023-05-16T20:47:59.318Z,1.77
2023-05-16T20:50:27.175Z,1.30
2023-05-16T20:52:56.448Z,1.60
2023-05-16T20:55:26.056Z,1.53
2023-05-16T20:57:54.027Z,1.60
2023-05-16T21:00:21.860Z,1.37
2023-05-16T21:02:49.918Z,1.47
2023-05-16T21:05:25.056Z,1.30
2023-05-16T21:07:54.100Z,1.80
2023-05-16T21:10:23.264Z,1.57
2023-05-16T21:12:51.296Z,1.67
2023-05-16T21:15:21.564Z,1.40
2023-05-16T21:17:51.298Z,1.40
2023-05-16T21:20:19.225Z,1.50
2023-05-16T21:22:47.070Z,1.40
2023-05-16T21:25:17.157Z,1.47
2023-05-16T21:27:46.299Z,1.67
2023-05-16T21:30:15.105Z,1.70
2023-05-16T21:32:43.041Z,1.50
2023-05-16T21:35:11.005Z,1.70
2023-05-16T21:37:38.810Z,1.97
2023-05-16T21:40:09.305Z,1.43
2023-05-16T21:42:37.385Z,1.80
2023-05-16T21:45:12.630Z,1.63
2023-05-16T21:47:40.654Z,1.40
2023-05-16T21:50:09.812Z,1.57
2023-05-16T21:52:37.703Z,2.10
2023-05-16T21:55:06.965Z,1.63
2023-05-16T21:57:34.789Z,1.80
2023-05-16T22:00:06.568Z,1.50
2023-05-16T22:02:36.190Z,1.80
2023-05-16T22:05:04.809Z,1.40
2023-05-16T22:07:32.741Z,1.50
2023-05-16T22:10:01.081Z,1.47
2023-05-16T22:12:30.296Z,1.83
2023-05-16T22:14:58.694Z,1.47
2023-05-16T22:17:26.605Z,1.80
2023-05-16T22:19:55.948Z,1.87
2023-05-16T22:22:23.855Z,1.97
2023-05-16T22:24:52.104Z,1.50
2023-05-16T22:27:19.863Z,2.00
2023-05-16T22:29:47.658Z,1.80
2023-05-16T22:32:15.524Z,2.27
2023-05-16T22:34:43.397Z,1.90
2023-05-16T22:37:12.637Z,2.10
2023-05-16T22:39:40.627Z,1.80
2023-05-16T22:42:08.493Z,1.77
2023-05-16T22:44:36.302Z,2.20
2023-05-16T22:47:04.205Z,2.50
2023-05-16T22:49:32.040Z,1.73
2023-05-16T22:51:59.848Z,2.10
2023-05-16T22:54:29.032Z,1.90
2023-05-16T22:56:56.803Z,2.30
2023-05-16T22:59:24.602Z,2.43
2023-05-16T23:01:52.409Z,2.40
2023-05-16T23:04:20.247Z,2.23
2023-05-16T23:06:48.156Z,2.20
2023-05-16T23:09:16.007Z,1.80
2023-05-16T23:11:45.155Z,2.00
2023-05-16T23:14:13.078Z,1.97
2023-05-16T23:16:40.975Z,2.07
2023-05-16T23:19:09.821Z,2.20
2023-05-16T23:21:37.745Z,2.10
2023-05-16T23:24:05.802Z,2.47
2023-05-16T23:26:33.648Z,2.47
2023-05-16T23:29:03.002Z,2.30
2023-05-16T23:31:30.800Z,2.10
2023-05-16T23:33:58.666Z,2.50
2023-05-16T23:36:26.489Z,2.10
2023-05-16T23:38:54.307Z,2.00
2023-05-16T23:41:22.126Z,2.40
2023-05-16T23:43:50.169Z,2.27
2023-05-16T23:46:19.349Z,2.27
2023-05-16T23:48:47.345Z,2.10
2023-05-16T23:51:15.289Z,2.00
2023-05-16T23:53:44.193Z,2.23
2023-05-16T23:56:12.079Z,2.13
2023-05-16T23:58:39.894Z,2.30
